»·PEaware :: N160RA KSNA-KAVX

N160RA :: KSNA-KAVX

FLIGHT INFORMATION

Flight Status: Arrived
Operator: Privately registered:
United States
More flights under this callsign
Pilot: Cody B. (17747)
Aircraft: CESSNA 172 SKYHAWK
(C172)
More flights by this aircraft type
Origin: KSNA John Wayne-Orange Co
United States
Destination: KAVX Catalina
United States
More flights between these airports :: More routes between these airports
Route: SLI V21 SXC
File this flight plan on PilotEdge
Remarks:
Altitude:
(Current/Filed)
6,000ft
Speed:
(Current/Filed)
110kts
Departed: 10-Feb-20 02:18 PM
Arrived: 10-Feb-20 02:51 PM
Distance/Time
Traveled:
32nm/0:33
Distance/Time
To Go:
Arrived

Flight Plot

Page will automatically refresh every two minutes.


Map Options




Map Legend


Flown Route
Filed Route
Departure Airport
Arrival Airport
Navaid (VOR, NDB)
Fix

Horizontal Profiles

Position Reports

Time Latitude Longitude Heading Altitude Ground
Speed
10-Feb-20 13:56 33.671829 -117.867132 210 60ft 0kts
10-Feb-20 13:57 33.671829 -117.867132 210 60ft 0kts
10-Feb-20 13:58 33.671829 -117.867132 210 60ft 0kts
10-Feb-20 13:59 33.671829 -117.867132 210 60ft 0kts
10-Feb-20 14:00 33.671829 -117.867132 210 60ft 0kts
10-Feb-20 14:01 33.671829 -117.867132 210 60ft 0kts
10-Feb-20 14:02 33.671829 -117.867132 210 60ft 0kts
10-Feb-20 14:03 33.671829 -117.867132 210 60ft 0kts
10-Feb-20 14:04 33.671829 -117.867132 210 60ft 0kts
10-Feb-20 14:05 33.671829 -117.867132 210 60ft 0kts
10-Feb-20 14:06 33.671829 -117.867132 210 60ft 0kts
10-Feb-20 14:07 33.671829 -117.867132 210 60ft 0kts
10-Feb-20 14:08 33.671829 -117.867132 210 60ft 0kts
10-Feb-20 14:09 33.671829 -117.867132 210 60ft 0kts
10-Feb-20 14:10 33.671829 -117.867133 210 60ft 0kts
10-Feb-20 14:11 33.671829 -117.867132 210 60ft 0kts
10-Feb-20 14:12 33.671829 -117.867132 210 60ft 0kts
10-Feb-20 14:13 33.671829 -117.867132 210 60ft 0kts
10-Feb-20 14:14 33.671781 -117.867465 304 60ft 3kts
10-Feb-20 14:15 33.673082 -117.867283 49 60ft 9kts
10-Feb-20 14:16 33.673904 -117.867588 300 60ft 0kts
10-Feb-20 14:17 33.679398 -117.864681 32 208ft 60kts
10-Feb-20 14:18 33.688145 -117.877419 251 920ft 98kts
10-Feb-20 14:19 33.679126 -117.911378 253 1613ft 106kts
10-Feb-20 14:20 33.670829 -117.943645 253 2410ft 95kts
10-Feb-20 14:21 33.663539 -117.972239 253 3194ft 83kts
10-Feb-20 14:22 33.656859 -117.994981 232 3887ft 66kts
10-Feb-20 14:23 33.643382 -118.012188 203 4317ft 82kts
10-Feb-20 14:24 33.629096 -118.033234 240 4848ft 86kts
10-Feb-20 14:25 33.614665 -118.057791 231 5353ft 93kts
10-Feb-20 14:26 33.597183 -118.081515 232 5853ft 96kts
10-Feb-20 14:27 33.579128 -118.108094 233 6073ft 125kts
10-Feb-20 14:28 33.553176 -118.140356 222 6068ft 140kts
10-Feb-20 14:29 33.525761 -118.173985 240 6067ft 141kts
10-Feb-20 14:30 33.505097 -118.214603 238 6010ft 144kts
10-Feb-20 14:31 33.481227 -118.253241 235 6001ft 144kts
10-Feb-20 14:32 33.456969 -118.291517 235 5685ft 141kts
10-Feb-20 14:33 33.433609 -118.328279 235 5186ft 137kts
10-Feb-20 14:35 33.410591 -118.364463 234 4690ft 135kts
10-Feb-20 14:36 33.387932 -118.399323 234 4185ft 124kts
10-Feb-20 14:37 33.393564 -118.416355 10 4085ft 86kts
10-Feb-20 14:38 33.415555 -118.416327 23 3908ft 55kts
10-Feb-20 14:39 33.438404 -118.406442 13 3954ft 109kts
10-Feb-20 14:40 33.468568 -118.402040 7 3950ft 109kts
10-Feb-20 14:41 33.498860 -118.397137 348 3947ft 111kts
10-Feb-20 14:42 33.523402 -118.420003 319 3951ft 115kts
10-Feb-20 14:43 33.542395 -118.411511 108 3948ft 116kts
10-Feb-20 14:44 33.515069 -118.387311 167 3585ft 129kts
10-Feb-20 14:45 33.481725 -118.397903 197 3381ft 112kts
10-Feb-20 14:46 33.451132 -118.407460 186 3130ft 115kts
10-Feb-20 14:47 33.419072 -118.405934 150 2348ft 116kts
10-Feb-20 14:48 33.398992 -118.418611 265 2229ft 79kts
10-Feb-20 14:49 33.416230 -118.412085 29 2154ft 73kts
10-Feb-20 14:50 33.407013 -118.412257 238 1526ft 71kts
10-Feb-20 14:51 33.403404 -118.416441 161 1554ft 6kts
10-Feb-20 14:52 33.403339 -118.416241 12 1553ft 0kts
10-Feb-20 14:53 33.403339 -118.416241 12 1553ft 0kts
10-Feb-20 14:54 33.403338 -118.416241 12 1553ft 0kts
10-Feb-20 14:54 33.403338 -118.416241 12 1553ft 0kts
10-Feb-20 14:56 33.403338 -118.416241 12 1553ft 0kts
10-Feb-20 14:56 33.403338 -118.416241 12 1553ft 0kts
10-Feb-20 14:57 33.403338 -118.416241 12 1553ft 0kts
10-Feb-20 14:59 33.403338 -118.416241 12 1553ft 0kts
10-Feb-20 14:59 33.403338 -118.416241 12 1553ft 0kts
10-Feb-20 15:00 33.403338 -118.416241 12 1553ft 0kts
10-Feb-20 15:02 33.403338 -118.416241 12 1553ft 0kts
10-Feb-20 15:02 33.403338 -118.416241 12 1553ft 0kts
10-Feb-20 15:03 33.403338 -118.416241 12 1553ft 0kts
10-Feb-20 15:04 33.403338 -118.416241 12 1553ft 0kts

Navigation Log

Ident Type
Flight plan parsing failed, navigation log unavailable